Time;durP1;ratioP1;P1;durP2;ratioP2;P2;SDS_P1;SDS_P2;PMS_P1;PMS_P2;Temp;Humidity;BMP_temperature;BMP_pressure;BME280_temperature;BME280_humidity;BME280_pressure;Samples;Min_cycle;Max_cycle;Signal;HPM_P1;HPM_P2
2021/09/27 00:03:42;;;;;;;111.78;26.27;;;16.70;99.90;;;;;;10471601;28;20045;-59
2021/09/27 00:08:44;;;;;;;113.75;26.27;;;16.70;99.90;;;;;;10474700;28;20052;-57
2021/09/27 00:13:51;;;;;;;137.38;28.10;;;16.60;99.90;;;;;;10469506;28;20126;-58
2021/09/27 00:18:53;;;;;;;131.07;28.25;;;16.50;99.90;;;;;;10459222;28;20111;-60
2021/09/27 00:23:56;;;;;;;132.30;27.77;;;16.50;99.90;;;;;;10467363;28;20076;-58
2021/09/27 00:28:57;;;;;;;110.10;27.48;;;16.50;99.90;;;;;;10464013;28;20449;-59
2021/09/27 00:33:59;;;;;;;106.32;27.90;;;16.50;99.90;;;;;;10461206;28;20116;-59
2021/09/27 00:39:02;;;;;;;117.78;27.13;;;16.50;99.90;;;;;;10472182;28;20074;-59
2021/09/27 00:44:05;;;;;;;118.65;28.45;;;16.50;99.90;;;;;;10467954;28;20072;-59
2021/09/27 00:49:07;;;;;;;124.18;27.77;;;16.50;99.90;;;;;;10471946;28;20080;-58
2021/09/27 00:54:16;;;;;;;114.15;26.17;;;16.40;99.90;;;;;;10450498;28;20064;-59
2021/09/27 00:59:19;;;;;;;113.85;26.63;;;16.40;99.90;;;;;;10468123;28;20114;-59
2021/09/27 01:04:20;;;;;;;118.32;26.98;;;16.40;99.90;;;;;;10469507;28;20118;-56
2021/09/27 01:09:26;;;;;;;135.48;28.17;;;16.30;99.90;;;;;;10467658;28;20118;-59
2021/09/27 01:14:59;;;;;;;137.23;27.20;;;16.20;99.90;;;;;;10466320;28;20127;-59
2021/09/27 01:20:35;;;;;;;122.63;26.20;;;16.20;99.90;;;;;;10472789;28;20098;-59
2021/09/27 01:25:55;;;;;;;121.45;25.98;;;16.20;99.90;;;;;;10471624;28;20083;-59
2021/09/27 01:31:28;;;;;;;125.60;26.60;;;16.20;99.90;;;;;;10470658;28;20619;-59
2021/09/27 01:37:09;;;;;;;113.32;26.60;;;16.20;99.90;;;;;;10473648;28;20045;-57
2021/09/27 01:42:21;;;;;;;122.00;25.67;;;16.20;99.90;;;;;;10447118;28;20084;-57
2021/09/27 01:47:34;;;;;;;125.63;27.58;;;16.20;99.90;;;;;;10475280;28;20052;-59
2021/09/27 01:52:49;;;;;;;121.05;27.15;;;16.30;99.90;;;;;;10474253;28;20052;-59
2021/09/27 01:58:15;;;;;;;128.27;27.50;;;16.30;99.90;;;;;;10476964;28;20091;-59
2021/09/27 02:03:38;;;;;;;142.13;28.57;;;16.30;99.90;;;;;;10466869;28;20084;-56
2021/09/27 02:08:52;;;;;;;139.32;29.80;;;16.30;99.90;;;;;;10472758;28;20106;-57
2021/09/27 02:14:02;;;;;;;156.77;28.85;;;16.30;99.90;;;;;;10471870;28;20535;-57
2021/09/27 02:19:30;;;;;;;137.95;27.63;;;16.40;99.90;;;;;;10463555;28;20045;-57
2021/09/27 02:24:41;;;;;;;163.52;29.58;;;16.40;99.90;;;;;;10473164;28;20106;-57
2021/09/27 02:29:43;;;;;;;253.93;31.25;;;16.40;99.90;;;;;;10472801;28;20044;-57
2021/09/27 02:34:54;;;;;;;164.05;28.75;;;16.30;99.90;;;;;;10472351;28;20125;-57
2021/09/27 02:40:05;;;;;;;170.10;27.25;;;16.30;99.90;;;;;;10474904;28;20076;-59
2021/09/27 02:45:09;;;;;;;170.40;28.05;;;16.40;99.90;;;;;;10470404;28;20130;-59
2021/09/27 02:50:14;;;;;;;147.13;26.58;;;16.30;99.90;;;;;;10473411;28;20526;-59
2021/09/27 02:55:20;;;;;;;186.07;27.58;;;16.30;99.90;;;;;;10472589;28;23782;-58
2021/09/27 03:00:51;;;;;;;165.57;27.63;;;16.20;99.90;;;;;;10472413;28;20056;-59
2021/09/27 03:06:30;;;;;;;161.23;27.90;;;16.20;99.90;;;;;;10469591;28;20828;-57
2021/09/27 03:12:26;;;;;;;183.95;25.38;;;16.20;99.90;;;;;;10469548;28;20174;-57
2021/09/27 03:17:40;;;;;;;201.80;27.30;;;16.20;99.90;;;;;;10322978;28;20080;-57
2021/09/27 03:23:03;;;;;;;275.73;29.17;;;16.20;99.90;;;;;;10474626;28;20536;-57
2021/09/27 03:28:16;;;;;;;242.27;26.20;;;16.10;99.90;;;;;;10469976;28;20118;-59
2021/09/27 03:33:49;;;;;;;257.73;27.40;;;16.10;99.90;;;;;;10473324;28;20118;-57
2021/09/27 03:39:05;;;;;;;184.55;24.73;;;16.00;99.90;;;;;;10475999;28;20072;-57
2021/09/27 03:44:52;;;;;;;175.75;24.77;;;16.00;99.90;;;;;;10477623;28;20056;-59
2021/09/27 03:50:10;;;;;;;121.82;22.95;;;16.00;99.90;;;;;;10462737;28;20478;-58
2021/09/27 03:55:21;;;;;;;;;;;15.90;99.90;;;;;;10469730;28;20129;-58
2021/09/27 04:00:31;;;;;;;140.75;23.55;;;16.00;99.90;;;;;;10470047;28;19968;-57
2021/09/27 04:06:20;;;;;;;135.30;24.75;;;16.00;99.90;;;;;;10470552;28;20059;-56
2021/09/27 04:11:44;;;;;;;126.40;22.13;;;16.00;99.90;;;;;;10352575;28;20080;-57
2021/09/27 04:17:06;;;;;;;141.18;24.10;;;16.90;99.90;;;;;;10471784;28;20044;-58
2021/09/27 04:22:29;;;;;;;130.05;24.92;;;16.10;99.90;;;;;;10473895;28;20107;-59
2021/09/27 04:27:48;;;;;;;143.65;23.83;;;16.00;99.90;;;;;;10469703;28;20502;-56
2021/09/27 04:33:10;;;;;;;132.93;24.13;;;16.10;99.90;;;;;;10468284;28;20048;-56
2021/09/27 04:38:14;;;;;;;125.13;23.67;;;16.00;99.90;;;;;;10448263;28;20682;-57
2021/09/27 04:43:44;;;;;;;129.35;25.55;;;16.00;99.90;;;;;;10465408;28;20379;-56
2021/09/27 04:48:54;;;;;;;106.65;23.10;;;16.00;99.90;;;;;;10470640;28;20078;-57
2021/09/27 04:54:05;;;;;;;99.13;23.35;;;16.00;99.90;;;;;;10463907;28;20056;-56
2021/09/27 04:59:29;;;;;;;97.82;25.20;;;16.00;99.90;;;;;;10472395;28;20125;-56
2021/09/27 05:04:52;;;;;;;96.60;24.90;;;16.20;99.90;;;;;;10476498;28;20150;-58
2021/09/27 05:10:30;;;;;;;120.75;24.08;;;16.10;99.90;;;;;;10476147;28;20130;-57
2021/09/27 05:15:50;;;;;;;106.15;24.23;;;16.20;99.90;;;;;;10477964;28;20087;-58
2021/09/27 05:21:29;;;;;;;109.63;28.05;;;16.10;99.90;;;;;;10471881;28;20084;-57
2021/09/27 05:27:04;;;;;;;89.50;22.50;;;16.10;99.90;;;;;;10471928;28;20547;-58
2021/09/27 05:32:44;;;;;;;92.72;22.55;;;16.10;99.90;;;;;;10477643;28;20048;-58
2021/09/27 05:38:01;;;;;;;92.35;21.50;;;16.10;99.90;;;;;;10472004;28;20049;-58
2021/09/27 05:43:17;;;;;;;77.25;20.83;;;16.10;99.90;;;;;;10476585;28;20044;-60
2021/09/27 05:48:40;;;;;;;68.45;20.58;;;16.10;99.90;;;;;;10473067;28;20095;-60
2021/09/27 05:54:23;;;;;;;61.45;18.92;;;16.10;99.90;;;;;;10473902;28;20122;-58
2021/09/27 06:00:13;;;;;;;74.93;21.65;;;16.10;99.90;;;;;;10471850;28;20072;-58
2021/09/27 06:05:26;;;;;;;62.40;20.85;;;16.10;99.90;;;;;;10447736;28;20114;-58
2021/09/27 06:10:41;;;;;;;65.18;21.23;;;16.10;99.90;;;;;;10457945;28;20692;-58
2021/09/27 06:16:06;;;;;;;62.10;21.30;;;16.10;99.90;;;;;;10474531;28;20053;-56
2021/09/27 06:21:47;;;;;;;56.90;20.20;;;16.10;99.90;;;;;;10468866;28;20178;-57
2021/09/27 06:27:01;;;;;;;53.85;19.65;;;16.10;99.90;;;;;;10425586;28;20075;-61
2021/09/27 06:32:50;;;;;;;53.45;19.30;;;16.10;99.90;;;;;;10471994;28;20098;-60
2021/09/27 06:37:53;;;;;;;52.95;18.95;;;16.10;99.90;;;;;;10465974;28;20155;-60
2021/09/27 06:42:55;;;;;;;46.28;18.98;;;16.10;99.90;;;;;;10473401;28;20072;-59
2021/09/27 06:47:57;;;;;;;49.65;17.75;;;16.10;99.90;;;;;;10472676;28;20154;-59
2021/09/27 06:52:58;;;;;;;47.90;18.23;;;16.10;99.90;;;;;;10471910;28;20056;-59
2021/09/27 06:58:00;;;;;;;44.63;17.73;;;16.10;99.90;;;;;;10471699;28;20106;-57
2021/09/27 07:03:02;;;;;;;43.97;17.90;;;16.10;99.90;;;;;;10475319;28;20056;-58
2021/09/27 07:08:04;;;;;;;51.55;19.48;;;16.10;99.90;;;;;;10473450;28;20524;-60
2021/09/27 07:13:06;;;;;;;40.30;16.98;;;16.10;99.90;;;;;;10464921;28;20487;-59
2021/09/27 07:18:08;;;;;;;46.78;17.35;;;16.00;99.90;;;;;;10469890;28;20567;-60
2021/09/27 07:23:09;;;;;;;42.53;16.55;;;16.00;99.90;;;;;;10471174;28;20512;-59
2021/09/27 07:28:11;;;;;;;47.25;16.45;;;16.00;99.90;;;;;;10472575;28;20172;-61
2021/09/27 07:33:13;;;;;;;39.03;14.73;;;16.20;99.90;;;;;;10471318;28;20045;-60
2021/09/27 07:38:15;;;;;;;36.05;14.88;;;16.30;99.90;;;;;;10467993;28;20114;-58
2021/09/27 07:43:17;;;;;;;30.50;14.20;;;16.30;99.90;;;;;;10472722;28;20079;-60
2021/09/27 07:48:19;;;;;;;25.73;13.75;;;16.30;99.90;;;;;;10469759;28;20136;-60
2021/09/27 07:53:22;;;;;;;31.25;12.80;;;16.30;99.90;;;;;;10468843;28;20133;-60
2021/09/27 07:58:24;;;;;;;22.48;12.25;;;16.30;99.90;;;;;;10469497;28;20402;-60
2021/09/27 08:03:26;;;;;;;25.20;12.85;;;16.30;99.90;;;;;;10467267;28;20060;-58
2021/09/27 08:08:28;;;;;;;25.85;12.68;;;16.30;99.90;;;;;;10467766;28;20084;-59
2021/09/27 08:13:30;;;;;;;26.88;14.65;;;16.40;99.90;;;;;;10467919;28;20052;-60
2021/09/27 08:18:32;;;;;;;28.65;14.70;;;16.50;99.90;;;;;;10473261;28;20053;-60
2021/09/27 08:23:35;;;;;;;29.15;14.50;;;16.50;99.90;;;;;;10469356;28;20049;-60
2021/09/27 08:28:38;;;;;;;37.83;17.08;;;16.60;99.90;;;;;;10462696;28;20057;-60
2021/09/27 08:33:40;;;;;;;38.35;16.63;;;16.50;99.90;;;;;;10446515;28;20080;-60
2021/09/27 08:38:43;;;;;;;33.40;17.50;;;16.50;99.90;;;;;;10471076;28;20102;-60
2021/09/27 08:43:48;;;;;;;35.45;16.98;;;16.50;99.90;;;;;;10476924;28;20114;-60
2021/09/27 08:49:01;;;;;;;32.00;15.98;;;16.40;99.90;;;;;;10476965;28;20106;-60
2021/09/27 08:54:09;;;;;;;29.23;13.27;;;16.60;99.90;;;;;;10464295;28;20056;-60
2021/09/27 08:59:44;;;;;;;24.10;13.75;;;16.70;99.90;;;;;;10474836;28;20134;-60
2021/09/27 09:05:08;;;;;;;24.88;14.40;;;17.00;99.90;;;;;;10471337;28;20072;-60
2021/09/27 09:10:12;;;;;;;32.90;16.80;;;16.80;99.90;;;;;;10470914;28;20080;-60
2021/09/27 09:15:24;;;;;;;26.30;14.13;;;16.90;99.90;;;;;;10475123;28;20082;-59
2021/09/27 09:20:47;;;;;;;26.98;15.20;;;17.10;99.90;;;;;;10475865;28;20052;-59
2021/09/27 09:25:49;;;;;;;28.35;14.95;;;17.00;99.90;;;;;;10475476;28;20110;-60
2021/09/27 09:31:20;;;;;;;24.52;14.70;;;17.10;99.90;;;;;;10481073;28;20110;-60
2021/09/27 09:36:24;;;;;;;26.25;15.13;;;17.20;99.90;;;;;;10470076;28;20107;-61
2021/09/27 09:41:49;;;;;;;24.52;14.95;;;17.20;99.90;;;;;;10474763;28;20055;-60
2021/09/27 09:47:23;;;;;;;25.33;14.00;;;17.30;99.90;;;;;;10472393;28;20118;-60
2021/09/27 09:52:32;;;;;;;21.35;13.32;;;17.50;99.90;;;;;;10465492;28;20129;-58
2021/09/27 09:57:40;;;;;;;20.92;13.75;;;17.70;99.90;;;;;;10472915;28;20055;-59
2021/09/27 10:02:46;;;;;;;22.02;13.05;;;17.60;99.90;;;;;;10475618;28;20144;-59
2021/09/27 10:07:50;;;;;;;22.75;14.05;;;17.50;99.90;;;;;;10478286;28;20060;-59
2021/09/27 10:12:52;;;;;;;19.38;12.18;;;17.80;99.90;;;;;;10466555;28;20115;-59
2021/09/27 10:18:05;;;;;;;19.23;13.57;;;17.60;99.90;;;;;;10476039;28;20076;-60
2021/09/27 10:23:12;;;;;;;18.30;12.30;;;17.80;99.90;;;;;;10472239;28;20110;-60
2021/09/27 10:28:19;;;;;;;12.65;9.70;;;17.90;99.90;;;;;;10468215;28;20119;-60
2021/09/27 10:33:36;;;;;;;11.60;8.65;;;18.30;99.90;;;;;;10472633;28;20057;-60
2021/09/27 10:38:49;;;;;;;13.07;9.05;;;18.40;99.90;;;;;;10470111;28;20052;-59
2021/09/27 10:43:54;;;;;;;13.18;7.68;;;18.60;99.90;;;;;;10478683;28;20081;-60
2021/09/27 10:48:55;;;;;;;8.00;5.80;;;18.80;99.90;;;;;;10473243;28;20106;-59
2021/09/27 10:54:34;;;;;;;10.60;6.18;;;19.40;99.90;;;;;;10472038;28;20056;-58
2021/09/27 10:59:42;;;;;;;8.77;5.40;;;19.10;99.90;;;;;;10456739;28;20483;-59
2021/09/27 11:04:46;;;;;;;7.53;5.57;;;19.30;99.90;;;;;;10450757;28;20048;-59
2021/09/27 11:09:48;;;;;;;6.30;5.07;;;19.30;99.90;;;;;;10469185;28;20056;-58
2021/09/27 11:15:06;;;;;;;6.88;4.65;;;19.70;99.90;;;;;;10471244;28;20106;-58
2021/09/27 11:20:14;;;;;;;7.22;4.63;;;20.10;99.90;;;;;;10477199;28;20121;-58
2021/09/27 11:25:22;;;;;;;6.25;3.90;;;19.80;99.90;;;;;;10470777;28;20044;-59
2021/09/27 11:30:36;;;;;;;4.95;4.45;;;19.90;99.90;;;;;;10452227;28;20048;-58
2021/09/27 11:35:43;;;;;;;6.32;4.35;;;19.90;99.90;;;;;;10470572;28;20102;-59
2021/09/27 11:40:53;;;;;;;10.68;4.65;;;19.90;99.90;;;;;;10471036;28;20590;-59
2021/09/27 11:46:41;;;;;;;5.60;3.35;;;20.10;99.90;;;;;;10468685;28;20431;-60
2021/09/27 11:51:44;;;;;;;6.38;4.28;;;20.30;99.90;;;;;;10455168;28;20060;-58
2021/09/27 11:57:10;;;;;;;7.55;3.92;;;20.60;99.90;;;;;;10472326;28;20049;-59
2021/09/27 12:02:24;;;;;;;4.70;4.13;;;20.60;99.90;;;;;;10469979;28;20064;-59
2021/09/27 12:07:37;;;;;;;13.10;4.55;;;20.50;99.90;;;;;;10472292;28;20076;-59
2021/09/27 12:12:44;;;;;;;6.75;3.80;;;20.50;99.90;;;;;;10468783;28;20048;-59
2021/09/27 12:17:45;;;;;;;4.85;3.55;;;20.80;99.90;;;;;;10472426;28;20078;-59
2021/09/27 12:22:57;;;;;;;5.30;3.58;;;21.10;99.90;;;;;;10466292;28;20079;-59
2021/09/27 12:28:05;;;;;;;8.07;4.32;;;21.30;99.90;;;;;;10466770;28;20703;-61
2021/09/27 12:33:27;;;;;;;6.70;3.50;;;20.80;99.90;;;;;;10462710;28;20056;-58
2021/09/27 12:38:28;;;;;;;6.10;4.20;;;20.80;99.90;;;;;;10463098;28;20109;-59
2021/09/27 12:43:32;;;;;;;5.78;4.03;;;20.50;99.90;;;;;;10472264;28;20056;-57
2021/09/27 12:48:38;;;;;;;6.07;3.65;;;20.50;99.90;;;;;;10467113;28;20049;-57
2021/09/27 12:53:48;;;;;;;6.85;3.33;;;20.80;99.90;;;;;;10469372;28;20053;-58
2021/09/27 12:58:53;;;;;;;5.85;3.72;;;21.00;99.90;;;;;;10468340;28;20060;-58
2021/09/27 13:04:01;;;;;;;7.30;3.58;;;21.00;99.90;;;;;;10459778;28;20075;-58
2021/09/27 13:09:09;;;;;;;8.30;3.80;;;20.70;99.90;;;;;;10472709;28;20056;-57
2021/09/27 13:14:20;;;;;;;4.70;3.22;;;20.70;99.90;;;;;;10467667;28;20064;-57
2021/09/27 13:19:37;;;;;;;6.57;3.95;;;20.60;99.90;;;;;;10474048;28;20057;-57
2021/09/27 13:24:39;;;;;;;;;;;21.00;99.90;;;;;;10471416;28;20098;-57
2021/09/27 13:29:40;;;;;;;4.68;3.13;;;21.00;99.90;;;;;;10475472;28;19940;-58
2021/09/27 13:35:02;;;;;;;6.85;3.50;;;20.80;99.90;;;;;;10474886;28;20084;-59
2021/09/27 13:40:26;;;;;;;5.10;3.08;;;21.00;99.90;;;;;;10475980;28;20271;-58
2021/09/27 13:45:32;;;;;;;7.78;3.72;;;20.90;99.90;;;;;;10472446;28;20049;-58
2021/09/27 13:50:34;;;;;;;;;;;20.80;99.90;;;;;;10477760;28;20056;-60
2021/09/27 13:55:37;;;;;;;6.65;3.30;;;21.30;99.90;;;;;;10472351;28;19943;-58
2021/09/27 14:00:43;;;;;;;8.93;4.30;;;21.30;99.90;;;;;;10473385;28;20637;-57
2021/09/27 14:05:46;;;;;;;6.75;3.13;;;21.40;99.90;;;;;;10474863;28;20041;-58
2021/09/27 14:10:49;;;;;;;3.78;2.28;;;21.20;99.90;;;;;;10470699;28;20130;-58
2021/09/27 14:15:51;;;;;;;4.80;2.90;;;21.10;99.90;;;;;;10475138;28;20076;-59
2021/09/27 14:20:53;;;;;;;6.47;2.85;;;21.10;99.90;;;;;;10477245;28;20056;-60
2021/09/27 14:25:55;;;;;;;3.90;2.75;;;21.20;99.90;;;;;;10472593;28;20082;-57
2021/09/27 14:30:57;;;;;;;4.25;3.00;;;21.10;99.90;;;;;;10477776;28;20102;-58
2021/09/27 14:35:59;;;;;;;4.78;2.63;;;21.00;99.90;;;;;;10467934;28;20588;-58
2021/09/27 14:41:01;;;;;;;4.80;2.92;;;20.80;99.90;;;;;;10471355;28;20555;-58
2021/09/27 14:46:03;;;;;;;7.32;2.72;;;20.90;99.90;;;;;;10471951;28;20076;-58
2021/09/27 14:51:05;;;;;;;2.92;2.30;;;20.90;99.90;;;;;;10474687;28;20573;-58
2021/09/27 14:56:07;;;;;;;3.55;2.47;;;20.80;99.90;;;;;;10474701;28;20056;-60
2021/09/27 15:01:11;;;;;;;3.78;2.20;;;20.90;99.90;;;;;;10480413;28;20516;-58
2021/09/27 15:06:13;;;;;;;4.05;2.63;;;20.80;99.90;;;;;;10467772;28;20056;-58
2021/09/27 15:11:15;;;;;;;8.25;3.70;;;20.80;99.90;;;;;;10474879;28;20056;-58
2021/09/27 15:16:17;;;;;;;4.43;2.60;;;20.70;99.90;;;;;;10468751;28;20071;-58
2021/09/27 15:21:19;;;;;;;4.90;2.63;;;20.70;99.90;;;;;;10469354;28;20067;-59
2021/09/27 15:26:33;;;;;;;5.95;2.75;;;20.70;99.90;;;;;;10462006;28;20143;-57
2021/09/27 15:31:49;;;;;;;5.03;3.33;;;20.70;99.90;;;;;;10469510;28;20052;-59
2021/09/27 15:36:56;;;;;;;7.43;3.67;;;20.60;99.90;;;;;;10433357;28;20122;-61
2021/09/27 15:41:59;;;;;;;9.40;3.05;;;20.60;99.90;;;;;;10471350;28;20540;-60
2021/09/27 15:47:06;;;;;;;4.55;2.38;;;20.60;99.90;;;;;;10471833;28;20059;-58
2021/09/27 15:52:08;;;;;;;3.67;2.60;;;20.60;99.90;;;;;;10465651;28;20143;-58
2021/09/27 15:57:10;;;;;;;7.53;2.22;;;20.40;99.90;;;;;;10467731;28;20496;-58
2021/09/27 16:02:12;;;;;;;6.95;2.40;;;20.40;99.90;;;;;;10470595;28;20056;-58
2021/09/27 16:07:14;;;;;;;3.30;2.15;;;20.30;99.90;;;;;;10470915;28;20118;-57
2021/09/27 16:12:15;;;;;;;3.03;2.00;;;20.20;99.90;;;;;;10470336;28;20452;-58
2021/09/27 16:17:17;;;;;;;2.25;1.38;;;20.20;99.90;;;;;;10472229;28;20083;-60
2021/09/27 16:22:24;;;;;;;3.67;1.43;;;20.30;99.90;;;;;;10465775;28;20072;-59
2021/09/27 16:27:25;;;;;;;3.30;2.22;;;20.40;99.90;;;;;;10475393;28;20475;-58
2021/09/27 16:32:27;;;;;;;6.97;2.05;;;20.40;99.90;;;;;;10465328;28;20114;-60
2021/09/27 16:37:29;;;;;;;2.80;1.70;;;20.40;99.90;;;;;;10467967;28;20102;-58
2021/09/27 16:42:31;;;;;;;4.18;1.33;;;20.40;99.90;;;;;;10468086;28;20060;-60
2021/09/27 16:47:33;;;;;;;3.70;1.35;;;20.30;99.90;;;;;;10470698;28;20073;-60
2021/09/27 16:52:35;;;;;;;1.67;1.00;;;20.30;99.90;;;;;;10470374;28;20106;-61
2021/09/27 16:57:37;;;;;;;2.70;0.90;;;20.30;99.90;;;;;;10479523;28;20080;-61
2021/09/27 17:02:38;;;;;;;3.40;1.08;;;20.30;99.90;;;;;;10473410;28;20048;-60
2021/09/27 17:07:41;;;;;;;1.30;0.80;;;20.30;99.90;;;;;;10480239;28;20190;-60
2021/09/27 17:12:43;;;;;;;7.57;1.00;;;20.20;99.90;;;;;;10475500;28;20478;-61
2021/09/27 17:17:51;;;;;;;1.67;1.02;;;20.10;99.90;;;;;;10470751;28;20053;-61
2021/09/27 17:22:59;;;;;;;1.15;0.65;;;20.10;99.90;;;;;;10480001;28;20083;-60
2021/09/27 17:28:06;;;;;;;4.47;0.80;;;20.00;99.90;;;;;;10463456;28;20080;-59
2021/09/27 17:33:10;;;;;;;2.50;0.80;;;20.00;99.90;;;;;;10476659;28;20116;-59
2021/09/27 17:38:11;;;;;;;2.65;1.42;;;19.90;99.90;;;;;;10475460;28;20064;-59
2021/09/27 17:43:13;;;;;;;1.92;0.90;;;19.80;99.90;;;;;;10452324;28;20084;-57
2021/09/27 17:48:15;;;;;;;2.55;0.93;;;19.70;99.90;;;;;;10474929;28;20060;-56
2021/09/27 17:53:17;;;;;;;3.90;1.10;;;19.60;99.90;;;;;;10470863;28;20060;-55
2021/09/27 17:58:19;;;;;;;1.60;1.00;;;19.50;99.90;;;;;;10470331;28;20819;-56
2021/09/27 18:03:20;;;;;;;2.17;1.10;;;19.50;99.90;;;;;;10479445;28;20079;-57
2021/09/27 18:08:22;;;;;;;4.78;1.05;;;19.40;99.90;;;;;;10478794;28;20102;-57
2021/09/27 18:13:27;;;;;;;3.28;1.23;;;19.30;99.90;;;;;;10478738;28;20110;-55
2021/09/27 18:18:29;;;;;;;1.92;0.85;;;19.10;99.90;;;;;;10474447;28;20060;-57
2021/09/27 18:23:31;;;;;;;2.70;0.82;;;;;;;;;;10470444;28;20120;-57
2021/09/27 18:28:34;;;;;;;4.60;0.80;;;;;;;;;;10470824;28;20067;-55
2021/09/27 18:33:37;;;;;;;4.35;1.17;;;;;;;;;;10476552;28;20143;-56
2021/09/27 18:38:43;;;;;;;3.20;0.93;;;;;;;;;;10474887;28;20129;-55
2021/09/27 18:43:45;;;;;;;5.28;1.00;;;18.70;99.90;;;;;;10478061;28;20049;-55
2021/09/27 18:48:48;;;;;;;4.18;1.48;;;18.70;99.90;;;;;;10479355;28;20052;-56
2021/09/27 18:53:52;;;;;;;3.75;1.00;;;18.60;99.90;;;;;;10472475;28;20056;-57
2021/09/27 18:58:54;;;;;;;2.92;0.95;;;18.60;99.90;;;;;;10470633;28;20056;-58
2021/09/27 19:03:56;;;;;;;1.73;0.98;;;18.60;99.90;;;;;;10468750;28;20125;-55
2021/09/27 19:08:58;;;;;;;2.05;1.13;;;18.60;99.90;;;;;;10468392;28;20124;-57
2021/09/27 19:14:01;;;;;;;2.00;1.08;;;18.60;99.90;;;;;;10451822;28;20155;-57
2021/09/27 19:19:02;;;;;;;5.78;1.33;;;18.60;99.90;;;;;;10466711;28;20052;-56
2021/09/27 19:24:05;;;;;;;3.53;1.02;;;18.50;99.90;;;;;;10468765;28;20545;-56
2021/09/27 19:29:10;;;;;;;2.72;1.20;;;18.40;99.90;;;;;;10477071;28;20121;-57
2021/09/27 19:34:12;;;;;;;2.65;1.58;;;18.30;99.90;;;;;;10461989;28;20084;-58
2021/09/27 19:39:14;;;;;;;5.30;1.48;;;18.40;99.90;;;;;;10473058;28;20056;-57
2021/09/27 19:44:15;;;;;;;4.53;1.95;;;18.30;99.90;;;;;;10471467;28;20553;-57
2021/09/27 19:49:17;;;;;;;5.97;1.75;;;18.30;99.90;;;;;;10464241;28;20076;-56
2021/09/27 19:54:19;;;;;;;2.92;1.80;;;18.20;99.90;;;;;;10472162;28;20064;-58
2021/09/27 19:59:21;;;;;;;4.75;2.20;;;;;;;;;;10454711;28;20110;-57
2021/09/27 20:04:25;;;;;;;3.63;1.70;;;;;;;;;;10469103;28;20052;-58
2021/09/27 20:09:27;;;;;;;3.53;1.70;;;;;;;;;;10470619;28;20075;-56
2021/09/27 20:14:29;;;;;;;4.38;2.28;;;;;;;;;;10461316;28;20091;-56
2021/09/27 20:19:36;;;;;;;4.72;1.80;;;;;;;;;;10471524;28;20087;-57
2021/09/27 20:24:38;;;;;;;4.28;1.77;;;;;;;;;;10466616;28;20052;-56
2021/09/27 20:29:40;;;;;;;1.15;0.50;;;;;;;;;;10470761;28;20060;-57
2021/09/27 20:34:42;;;;;;;1.63;0.20;;;;;;;;;;10482288;28;20048;-55
2021/09/27 20:39:45;;;;;;;1.83;0.20;;;;;;;;;;10481158;28;20052;-57
2021/09/27 20:44:47;;;;;;;0.73;0.40;;;;;;;;;;10472014;28;20072;-58
2021/09/27 20:49:49;;;;;;;1.75;0.10;;;;;;;;;;10477156;28;20155;-57
2021/09/27 20:54:51;;;;;;;1.33;0.10;;;;;;;;;;10458342;28;20084;-58
2021/09/27 20:59:56;;;;;;;4.65;0.30;;;;;;;;;;10481552;28;20486;-56
2021/09/27 21:04:58;;;;;;;3.95;0.35;;;;;;;;;;10474597;28;20122;-57
2021/09/27 21:10:00;;;;;;;3.60;0.30;;;;;;;;;;10476500;28;20063;-56
2021/09/27 21:15:02;;;;;;;3.17;0.20;;;;;;;;;;10467682;28;20099;-57
2021/09/27 21:20:05;;;;;;;2.38;0.22;;;;;;;;;;10478773;28;20098;-57
2021/09/27 21:25:08;;;;;;;2.42;0.43;;;13.30;99.90;;;;;;10480281;28;20053;-57
2021/09/27 21:30:11;;;;;;;3.65;0.80;;;13.30;99.90;;;;;;10473496;28;20457;-55
2021/09/27 21:35:13;;;;;;;3.90;0.80;;;13.20;99.90;;;;;;10475748;28;20135;-56
2021/09/27 21:40:16;;;;;;;2.88;0.50;;;13.30;99.90;;;;;;10471761;28;20077;-55
2021/09/27 21:45:18;;;;;;;1.38;0.80;;;13.40;99.90;;;;;;10473579;28;20630;-56
2021/09/27 21:50:22;;;;;;;2.30;0.43;;;13.40;99.90;;;;;;10477961;28;20110;-56
2021/09/27 21:55:25;;;;;;;1.45;0.40;;;13.50;99.90;;;;;;10472309;28;20131;-56
2021/09/27 22:00:46;;;;;;;2.00;0.30;;;13.50;99.90;;;;;;10471609;28;20114;-54
2021/09/27 22:05:48;;;;;;;2.92;0.50;;;13.60;99.90;;;;;;10454108;28;20068;-54
2021/09/27 22:10:51;;;;;;;1.17;0.57;;;;;;;;;;10472674;28;20111;-54
2021/09/27 22:15:53;;;;;;;1.70;0.75;;;;;;;;;;10457685;28;20080;-56
2021/09/27 22:20:55;;;;;;;4.10;0.70;;;;;;;;;;10475088;28;20114;-56
2021/09/27 22:25:57;;;;;;;3.17;0.70;;;;;;;;;;10474124;28;20087;-56
2021/09/27 22:30:59;;;;;;;3.22;0.70;;;;;;;;;;10475176;28;20133;-55
2021/09/27 22:36:02;;;;;;;3.90;0.80;;;;;;;;;;10468425;28;20132;-56
2021/09/27 22:41:04;;;;;;;9.25;1.08;;;;;;;;;;10469001;28;20181;-56
2021/09/27 22:46:06;;;;;;;6.22;1.02;;;;;;;;;;10473994;28;20160;-55
2021/09/27 22:51:08;;;;;;;4.00;1.27;;;;;;;;;;10474349;28;20634;-57
2021/09/27 22:56:10;;;;;;;6.57;0.90;;;;;;;;;;10470428;28;20056;-57
2021/09/27 23:01:12;;;;;;;6.63;0.85;;;;;;;;;;10476886;28;20680;-55
2021/09/27 23:06:14;;;;;;;8.45;0.70;;;;;;;;;;10470860;28;20107;-56
2021/09/27 23:11:16;;;;;;;6.30;1.33;;;;;;;;;;10471082;28;20149;-57
2021/09/27 23:16:18;;;;;;;2.15;0.75;;;;;;;;;;10467862;28;20053;-57
2021/09/27 23:21:21;;;;;;;4.95;0.88;;;;;;;;;;10472259;28;20067;-56
2021/09/27 23:26:23;;;;;;;5.97;1.02;;;;;;;;;;10469780;28;20117;-55
2021/09/27 23:31:25;;;;;;;5.95;0.90;;;;;;;;;;10470735;28;20122;-55
2021/09/27 23:36:27;;;;;;;4.68;1.00;;;;;;;;;;10470014;28;20072;-57
2021/09/27 23:41:29;;;;;;;9.63;1.33;;;;;;;;;;10459439;28;20052;-57
2021/09/27 23:46:31;;;;;;;9.30;0.77;;;;;;;;;;10468610;28;20095;-57
2021/09/27 23:51:33;;;;;;;4.55;0.90;;;;;;;;;;10468273;28;20447;-56
2021/09/27 23:56:35;;;;;;;7.65;0.55;;;;;;;;;;10456003;28;20082;-55
